sensor_id;sensor_type;location;lat;lon;timestamp;pressure;altitude;pressure_sealevel;temperature;humidity
75460;BME280;64039;53.060;9.342;2022-11-20T00:02:22;100955.72;;;-0.57;100.00
75460;BME280;64039;53.060;9.342;2022-11-20T00:04:48;100965.72;;;-0.60;100.00
75460;BME280;64039;53.060;9.342;2022-11-20T00:07:13;100964.56;;;-0.52;100.00
75460;BME280;64039;53.060;9.342;2022-11-20T00:09:38;100959.38;;;-0.54;100.00
75460;BME280;64039;53.060;9.342;2022-11-20T00:12:04;100955.56;;;-0.47;100.00
75460;BME280;64039;53.060;9.342;2022-11-20T00:14:30;100962.84;;;-0.65;100.00
75460;BME280;64039;53.060;9.342;2022-11-20T00:16:55;100961.03;;;-0.54;100.00
75460;BME280;64039;53.060;9.342;2022-11-20T00:19:20;100959.56;;;-0.76;100.00
75460;BME280;64039;53.060;9.342;2022-11-20T00:21:46;100960.09;;;-0.68;100.00
75460;BME280;64039;53.060;9.342;2022-11-20T00:24:12;100956.72;;;-0.67;100.00
75460;BME280;64039;53.060;9.342;2022-11-20T00:26:38;100955.91;;;-0.80;100.00
75460;BME280;64039;53.060;9.342;2022-11-20T00:29:03;100944.28;;;-0.63;100.00
75460;BME280;64039;53.060;9.342;2022-11-20T00:31:29;100943.84;;;-0.69;100.00
75460;BME280;64039;53.060;9.342;2022-11-20T00:33:55;100948.56;;;-0.75;100.00
75460;BME280;64039;53.060;9.342;2022-11-20T00:36:23;100947.91;;;-0.84;100.00
75460;BME280;64039;53.060;9.342;2022-11-20T00:38:58;100942.72;;;-0.60;100.00
75460;BME280;64039;53.060;9.342;2022-11-20T00:41:25;100941.72;;;-0.63;100.00
75460;BME280;64039;53.060;9.342;2022-11-20T00:43:52;100954.88;;;-0.44;100.00
75460;BME280;64039;53.060;9.342;2022-11-20T00:46:20;100945.78;;;-0.78;100.00
75460;BME280;64039;53.060;9.342;2022-11-20T00:48:46;100938.84;;;-0.67;100.00
75460;BME280;64039;53.060;9.342;2022-11-20T00:51:18;100946.25;;;-0.84;100.00
75460;BME280;64039;53.060;9.342;2022-11-20T00:53:44;100936.66;;;-0.74;100.00
75460;BME280;64039;53.060;9.342;2022-11-20T00:56:12;100945.22;;;-0.74;100.00
75460;BME280;64039;53.060;9.342;2022-11-20T00:58:39;100937.25;;;-0.78;100.00
75460;BME280;64039;53.060;9.342;2022-11-20T01:03:38;100937.41;;;-0.64;100.00
75460;BME280;64039;53.060;9.342;2022-11-20T01:06:10;100935.09;;;-0.72;100.00
75460;BME280;64039;53.060;9.342;2022-11-20T01:08:37;100939.69;;;-0.55;100.00
75460;BME280;64039;53.060;9.342;2022-11-20T01:11:05;100937.06;;;-0.93;100.00
75460;BME280;64039;53.060;9.342;2022-11-20T01:13:31;100937.09;;;-0.68;100.00
75460;BME280;64039;53.060;9.342;2022-11-20T01:18:37;100929.19;;;-0.46;100.00
75460;BME280;64039;53.060;9.342;2022-11-20T01:21:31;100933.22;;;-0.50;100.00
75460;BME280;64039;53.060;9.342;2022-11-20T01:23:59;100925.22;;;-0.54;100.00
75460;BME280;64039;53.060;9.342;2022-11-20T01:26:27;100920.78;;;-0.57;100.00
75460;BME280;64039;53.060;9.342;2022-11-20T01:28:54;100918.47;;;-0.54;100.00
75460;BME280;64039;53.060;9.342;2022-11-20T01:31:25;100916.13;;;-0.51;100.00
75460;BME280;64039;53.060;9.342;2022-11-20T01:33:54;100912.44;;;-0.54;100.00
75460;BME280;64039;53.060;9.342;2022-11-20T01:36:22;100916.47;;;-0.58;100.00
75460;BME280;64039;53.060;9.342;2022-11-20T01:38:50;100903.81;;;-0.56;100.00
75460;BME280;64039;53.060;9.342;2022-11-20T01:41:16;100906.16;;;-0.59;100.00
75460;BME280;64039;53.060;9.342;2022-11-20T01:44:01;100910.25;;;-0.36;100.00
75460;BME280;64039;53.060;9.342;2022-11-20T01:46:27;100903.66;;;-0.33;100.00
75460;BME280;64039;53.060;9.342;2022-11-20T01:49:17;100897.47;;;-0.36;100.00
75460;BME280;64039;53.060;9.342;2022-11-20T01:51:52;100897.94;;;-0.42;100.00
75460;BME280;64039;53.060;9.342;2022-11-20T01:54:29;100898.81;;;-0.41;100.00
75460;BME280;64039;53.060;9.342;2022-11-20T01:56:57;100893.50;;;-0.44;100.00
75460;BME280;64039;53.060;9.342;2022-11-20T01:59:26;100894.19;;;-0.47;100.00
75460;BME280;64039;53.060;9.342;2022-11-20T02:01:53;100888.88;;;-0.37;100.00
75460;BME280;64039;53.060;9.342;2022-11-20T02:04:20;100886.84;;;-0.42;100.00
75460;BME280;64039;53.060;9.342;2022-11-20T02:06:49;100889.09;;;-0.34;100.00
75460;BME280;64039;53.060;9.342;2022-11-20T02:09:16;100890.44;;;-0.52;100.00
75460;BME280;64039;53.060;9.342;2022-11-20T02:11:42;100888.69;;;-0.40;100.00
75460;BME280;64039;53.060;9.342;2022-11-20T02:14:08;100883.91;;;-0.22;100.00
75460;BME280;64039;53.060;9.342;2022-11-20T02:16:37;100883.53;;;-0.14;100.00
75460;BME280;64039;53.060;9.342;2022-11-20T02:19:07;100881.75;;;-0.16;100.00
75460;BME280;64039;53.060;9.342;2022-11-20T02:24:06;100878.09;;;-0.19;100.00
75460;BME280;64039;53.060;9.342;2022-11-20T02:26:58;100878.34;;;-0.41;100.00
75460;BME280;64039;53.060;9.342;2022-11-20T02:29:26;100879.25;;;-0.27;100.00
75460;BME280;64039;53.060;9.342;2022-11-20T02:31:54;100879.66;;;-0.35;100.00
75460;BME280;64039;53.060;9.342;2022-11-20T02:34:20;100880.56;;;-0.21;100.00
75460;BME280;64039;53.060;9.342;2022-11-20T02:36:46;100880.78;;;-0.18;100.00
75460;BME280;64039;53.060;9.342;2022-11-20T02:39:15;100873.19;;;-0.29;100.00
75460;BME280;64039;53.060;9.342;2022-11-20T02:41:42;100868.72;;;-0.32;100.00
75460;BME280;64039;53.060;9.342;2022-11-20T02:44:07;100865.59;;;-0.28;100.00
75460;BME280;64039;53.060;9.342;2022-11-20T02:46:33;100865.13;;;-0.22;100.00
75460;BME280;64039;53.060;9.342;2022-11-20T02:49:01;100867.56;;;-0.24;100.00
75460;BME280;64039;53.060;9.342;2022-11-20T02:51:26;100867.47;;;-0.25;100.00
75460;BME280;64039;53.060;9.342;2022-11-20T02:53:52;100863.94;;;-0.14;100.00
75460;BME280;64039;53.060;9.342;2022-11-20T02:56:17;100863.16;;;0.01;100.00
75460;BME280;64039;53.060;9.342;2022-11-20T02:58:43;100865.94;;;0.04;100.00
75460;BME280;64039;53.060;9.342;2022-11-20T03:01:08;100865.72;;;0.14;100.00
75460;BME280;64039;53.060;9.342;2022-11-20T03:03:34;100863.66;;;0.22;100.00
75460;BME280;64039;53.060;9.342;2022-11-20T03:05:59;100862.97;;;0.11;100.00
75460;BME280;64039;53.060;9.342;2022-11-20T03:08:25;100861.28;;;-0.29;100.00
75460;BME280;64039;53.060;9.342;2022-11-20T03:10:51;100855.75;;;-0.08;100.00
75460;BME280;64039;53.060;9.342;2022-11-20T03:13:17;100851.38;;;0.03;100.00
75460;BME280;64039;53.060;9.342;2022-11-20T03:15:42;100847.03;;;0.02;100.00
75460;BME280;64039;53.060;9.342;2022-11-20T03:18:08;100841.09;;;-0.11;100.00
75460;BME280;64039;53.060;9.342;2022-11-20T03:20:33;100843.66;;;-0.24;100.00
75460;BME280;64039;53.060;9.342;2022-11-20T03:23:00;100844.28;;;-0.15;100.00
75460;BME280;64039;53.060;9.342;2022-11-20T03:25:25;100841.09;;;-0.11;100.00
75460;BME280;64039;53.060;9.342;2022-11-20T03:27:51;100841.59;;;-0.17;100.00
75460;BME280;64039;53.060;9.342;2022-11-20T03:30:17;100838.75;;;-0.21;100.00
75460;BME280;64039;53.060;9.342;2022-11-20T03:32:43;100842.59;;;-0.28;100.00
75460;BME280;64039;53.060;9.342;2022-11-20T03:35:09;100841.41;;;-0.20;100.00
75460;BME280;64039;53.060;9.342;2022-11-20T03:37:34;100840.03;;;-0.28;100.00
75460;BME280;64039;53.060;9.342;2022-11-20T03:40:00;100831.97;;;-0.21;100.00
75460;BME280;64039;53.060;9.342;2022-11-20T03:42:25;100829.38;;;-0.48;100.00
75460;BME280;64039;53.060;9.342;2022-11-20T03:45:12;100832.47;;;-0.65;100.00
75460;BME280;64039;53.060;9.342;2022-11-20T03:47:37;100829.72;;;-0.68;100.00
75460;BME280;64039;53.060;9.342;2022-11-20T03:50:03;100820.03;;;-0.47;100.00
75460;BME280;64039;53.060;9.342;2022-11-20T03:52:29;100821.00;;;-0.45;100.00
75460;BME280;64039;53.060;9.342;2022-11-20T03:54:54;100816.97;;;-0.55;100.00
75460;BME280;64039;53.060;9.342;2022-11-20T03:57:20;100813.31;;;-0.72;100.00
75460;BME280;64039;53.060;9.342;2022-11-20T03:59:45;100810.22;;;-0.80;100.00
75460;BME280;64039;53.060;9.342;2022-11-20T04:02:10;100807.22;;;-0.60;100.00
75460;BME280;64039;53.060;9.342;2022-11-20T04:04:36;100806.81;;;-0.67;100.00
75460;BME280;64039;53.060;9.342;2022-11-20T04:07:02;100800.25;;;-0.50;100.00
75460;BME280;64039;53.060;9.342;2022-11-20T04:09:27;100809.69;;;-0.62;100.00
75460;BME280;64039;53.060;9.342;2022-11-20T04:11:53;100811.53;;;-0.59;100.00
75460;BME280;64039;53.060;9.342;2022-11-20T04:14:18;100810.47;;;-0.63;100.00
75460;BME280;64039;53.060;9.342;2022-11-20T04:16:44;100805.25;;;-0.65;100.00
75460;BME280;64039;53.060;9.342;2022-11-20T04:19:14;100797.28;;;-0.69;100.00
75460;BME280;64039;53.060;9.342;2022-11-20T04:21:41;100791.28;;;-0.70;100.00
75460;BME280;64039;53.060;9.342;2022-11-20T04:24:06;100792.00;;;-0.59;100.00
75460;BME280;64039;53.060;9.342;2022-11-20T04:26:33;100791.19;;;-0.58;100.00
75460;BME280;64039;53.060;9.342;2022-11-20T04:28:58;100795.81;;;-0.52;100.00
75460;BME280;64039;53.060;9.342;2022-11-20T04:31:27;100794.41;;;-0.74;100.00
75460;BME280;64039;53.060;9.342;2022-11-20T04:33:53;100790.56;;;-0.67;100.00
75460;BME280;64039;53.060;9.342;2022-11-20T04:36:23;100804.19;;;-0.55;100.00
75460;BME280;64039;53.060;9.342;2022-11-20T04:38:53;100799.28;;;-0.52;100.00
75460;BME280;64039;53.060;9.342;2022-11-20T04:41:20;100804.19;;;-0.55;100.00
75460;BME280;64039;53.060;9.342;2022-11-20T04:43:50;100804.19;;;-0.68;100.00
75460;BME280;64039;53.060;9.342;2022-11-20T04:46:18;100796.22;;;-0.59;100.00
75460;BME280;64039;53.060;9.342;2022-11-20T04:48:43;100795.34;;;-0.46;100.00
75460;BME280;64039;53.060;9.342;2022-11-20T04:51:09;100794.69;;;-0.30;100.00
75460;BME280;64039;53.060;9.342;2022-11-20T04:53:35;100788.38;;;-0.36;100.00
75460;BME280;64039;53.060;9.342;2022-11-20T04:56:05;100787.00;;;-0.30;100.00
75460;BME280;64039;53.060;9.342;2022-11-20T04:58:31;100788.84;;;-0.55;100.00
75460;BME280;64039;53.060;9.342;2022-11-20T05:01:09;100777.53;;;-0.72;100.00
75460;BME280;64039;53.060;9.342;2022-11-20T05:03:35;100778.00;;;-0.64;100.00
75460;BME280;64039;53.060;9.342;2022-11-20T05:06:02;100790.91;;;-0.49;100.00
75460;BME280;64039;53.060;9.342;2022-11-20T05:08:29;100781.09;;;-0.56;100.00
75460;BME280;64039;53.060;9.342;2022-11-20T05:11:00;100772.50;;;-0.57;100.00
75460;BME280;64039;53.060;9.342;2022-11-20T05:13:26;100780.38;;;-0.40;100.00
75460;BME280;64039;53.060;9.342;2022-11-20T05:15:52;100777.34;;;-0.48;100.00
75460;BME280;64039;53.060;9.342;2022-11-20T05:18:17;100767.81;;;-0.51;100.00
75460;BME280;64039;53.060;9.342;2022-11-20T05:20:42;100765.25;;;-0.37;100.00
75460;BME280;64039;53.060;9.342;2022-11-20T05:23:08;100775.28;;;-0.40;100.00
75460;BME280;64039;53.060;9.342;2022-11-20T05:25:33;100787.00;;;-0.30;100.00
75460;BME280;64039;53.060;9.342;2022-11-20T05:27:59;100783.72;;;-0.41;100.00
75460;BME280;64039;53.060;9.342;2022-11-20T05:30:24;100791.50;;;-0.53;100.00
75460;BME280;64039;53.060;9.342;2022-11-20T05:32:50;100786.44;;;-0.78;100.00
75460;BME280;64039;53.060;9.342;2022-11-20T05:35:15;100791.31;;;-0.56;100.00
75460;BME280;64039;53.060;9.342;2022-11-20T05:37:41;100794.66;;;-0.44;100.00
75460;BME280;64039;53.060;9.342;2022-11-20T05:40:07;100793.97;;;-0.41;100.00
75460;BME280;64039;53.060;9.342;2022-11-20T05:42:32;100796.25;;;-0.33;100.00
75460;BME280;64039;53.060;9.342;2022-11-20T05:44:59;100796.63;;;-0.26;100.00
75460;BME280;64039;53.060;9.342;2022-11-20T05:47:25;100789.66;;;-0.42;100.00
75460;BME280;64039;53.060;9.342;2022-11-20T05:49:51;100793.69;;;-0.33;100.00
75460;BME280;64039;53.060;9.342;2022-11-20T05:52:17;100793.78;;;-0.31;100.00
75460;BME280;64039;53.060;9.342;2022-11-20T05:54:42;100782.72;;;-0.57;100.00
75460;BME280;64039;53.060;9.342;2022-11-20T05:57:07;100791.63;;;-0.38;100.00
75460;BME280;64039;53.060;9.342;2022-11-20T05:59:33;100770.19;;;-0.27;100.00
75460;BME280;64039;53.060;9.342;2022-11-20T06:01:58;100771.16;;;-0.38;100.00
75460;BME280;64039;53.060;9.342;2022-11-20T06:04:24;100758.56;;;-0.35;100.00
75460;BME280;64039;53.060;9.342;2022-11-20T06:06:49;100770.28;;;-0.39;100.00
75460;BME280;64039;53.060;9.342;2022-11-20T06:09:14;100766.66;;;-0.42;100.00
75460;BME280;64039;53.060;9.342;2022-11-20T06:11:40;100765.81;;;-0.41;100.00
75460;BME280;64039;53.060;9.342;2022-11-20T06:14:05;100771.81;;;-0.54;100.00
75460;BME280;64039;53.060;9.342;2022-11-20T06:16:31;100767.50;;;-0.42;100.00
75460;BME280;64039;53.060;9.342;2022-11-20T06:18:56;100762.97;;;-0.46;100.00
75460;BME280;64039;53.060;9.342;2022-11-20T06:21:22;100762.97;;;-0.59;100.00
75460;BME280;64039;53.060;9.342;2022-11-20T06:23:49;100767.50;;;-0.42;100.00
75460;BME280;64039;53.060;9.342;2022-11-20T06:26:18;100758.69;;;-0.47;100.00
75460;BME280;64039;53.060;9.342;2022-11-20T06:28:44;100762.00;;;-0.48;100.00
75460;BME280;64039;53.060;9.342;2022-11-20T06:31:12;100755.78;;;-0.65;100.00
75460;BME280;64039;53.060;9.342;2022-11-20T06:33:38;100754.72;;;-0.55;100.00
75460;BME280;64039;53.060;9.342;2022-11-20T06:36:04;100759.25;;;-0.51;100.00
75460;BME280;64039;53.060;9.342;2022-11-20T06:38:30;100752.16;;;-0.42;100.00
75460;BME280;64039;53.060;9.342;2022-11-20T06:40:55;100745.28;;;-0.43;100.00
75460;BME280;64039;53.060;9.342;2022-11-20T06:43:22;100745.06;;;-0.46;100.00
75460;BME280;64039;53.060;9.342;2022-11-20T06:45:54;100733.75;;;-0.50;100.00
75460;BME280;64039;53.060;9.342;2022-11-20T06:48:22;100743.41;;;-0.32;100.00
75460;BME280;64039;53.060;9.342;2022-11-20T06:50:47;100740.09;;;-0.44;100.00
75460;BME280;64039;53.060;9.342;2022-11-20T06:53:13;100736.53;;;-0.60;100.00
75460;BME280;64039;53.060;9.342;2022-11-20T06:55:42;100735.84;;;-0.57;100.00
75460;BME280;64039;53.060;9.342;2022-11-20T06:58:09;100736.16;;;-0.53;100.00
75460;BME280;64039;53.060;9.342;2022-11-20T07:00:34;100734.78;;;-0.34;100.00
75460;BME280;64039;53.060;9.342;2022-11-20T07:03:08;100729.44;;;-0.24;100.00
75460;BME280;64039;53.060;9.342;2022-11-20T07:05:35;100731.31;;;-0.35;100.00
75460;BME280;64039;53.060;9.342;2022-11-20T07:08:01;100730.84;;;-0.42;100.00
75460;BME280;64039;53.060;9.342;2022-11-20T07:10:27;100722.97;;;-0.45;100.00
75460;BME280;64039;53.060;9.342;2022-11-20T07:12:53;100723.63;;;-0.35;100.00
75460;BME280;64039;53.060;9.342;2022-11-20T07:15:19;100716.06;;;-0.33;100.00
75460;BME280;64039;53.060;9.342;2022-11-20T07:17:45;100711.94;;;-0.31;100.00
75460;BME280;64039;53.060;9.342;2022-11-20T07:20:11;100708.69;;;-0.28;100.00
75460;BME280;64039;53.060;9.342;2022-11-20T07:22:37;100711.53;;;-0.24;100.00
75460;BME280;64039;53.060;9.342;2022-11-20T07:25:03;100718.22;;;-0.12;100.00
75460;BME280;64039;53.060;9.342;2022-11-20T07:27:29;100703.53;;;-0.02;100.00
75460;BME280;64039;53.060;9.342;2022-11-20T07:29:55;100701.41;;;-0.22;100.00
75460;BME280;64039;53.060;9.342;2022-11-20T07:32:20;100710.03;;;-0.07;100.00
75460;BME280;64039;53.060;9.342;2022-11-20T07:34:46;100714.53;;;-0.03;100.00
75460;BME280;64039;53.060;9.342;2022-11-20T07:37:11;100729.81;;;-0.04;100.00
75460;BME280;64039;53.060;9.342;2022-11-20T07:39:37;100725.19;;;-0.10;100.00
75460;BME280;64039;53.060;9.342;2022-11-20T07:42:02;100729.53;;;-0.09;100.00
75460;BME280;64039;53.060;9.342;2022-11-20T07:44:28;100737.81;;;-0.13;100.00
75460;BME280;64039;53.060;9.342;2022-11-20T07:46:53;100740.75;;;-0.20;100.00
75460;BME280;64039;53.060;9.342;2022-11-20T07:49:19;100739.88;;;-0.21;100.00
75460;BME280;64039;53.060;9.342;2022-11-20T07:51:44;100737.63;;;-0.29;100.00
75460;BME280;64039;53.060;9.342;2022-11-20T07:54:09;100740.84;;;-0.32;100.00
75460;BME280;64039;53.060;9.342;2022-11-20T07:56:35;100727.41;;;-0.29;100.00
75460;BME280;64039;53.060;9.342;2022-11-20T07:59:00;100727.06;;;-0.21;100.00
75460;BME280;64039;53.060;9.342;2022-11-20T08:01:26;100730.22;;;-0.11;100.00
75460;BME280;64039;53.060;9.342;2022-11-20T08:03:51;100716.94;;;-0.06;100.00
75460;BME280;64039;53.060;9.342;2022-11-20T08:06:17;100709.84;;;-0.10;100.00
75460;BME280;64039;53.060;9.342;2022-11-20T08:08:44;100722.25;;;-0.16;100.00
75460;BME280;64039;53.060;9.342;2022-11-20T08:11:10;100725.56;;;-0.04;100.00
75460;BME280;64039;53.060;9.342;2022-11-20T08:13:54;100730.03;;;-0.28;100.00
75460;BME280;64039;53.060;9.342;2022-11-20T08:16:42;100731.88;;;-0.12;100.00
75460;BME280;64039;53.060;9.342;2022-11-20T08:19:10;100733.06;;;-0.07;100.00
75460;BME280;64039;53.060;9.342;2022-11-20T08:21:36;100744.59;;;0.00;100.00
75460;BME280;64039;53.060;9.342;2022-11-20T08:24:01;100731.22;;;-0.09;100.00
75460;BME280;64039;53.060;9.342;2022-11-20T08:26:27;100731.38;;;-0.06;100.00
75460;BME280;64039;53.060;9.342;2022-11-20T08:28:54;100737.56;;;-0.03;100.00
75460;BME280;64039;53.060;9.342;2022-11-20T08:31:20;100738.25;;;0.08;100.00
75460;BME280;64039;53.060;9.342;2022-11-20T08:33:46;100736.94;;;0.15;100.00
75460;BME280;64039;53.060;9.342;2022-11-20T08:36:11;100735.97;;;0.13;100.00
75460;BME280;64039;53.060;9.342;2022-11-20T08:38:37;100726.84;;;0.03;100.00
75460;BME280;64039;53.060;9.342;2022-11-20T08:41:03;100730.47;;;0.20;100.00
75460;BME280;64039;53.060;9.342;2022-11-20T08:43:48;100747.25;;;0.30;100.00
75460;BME280;64039;53.060;9.342;2022-11-20T08:46:13;100733.84;;;0.34;100.00
75460;BME280;64039;53.060;9.342;2022-11-20T08:48:40;100734.97;;;0.24;100.00
75460;BME280;64039;53.060;9.342;2022-11-20T08:51:06;100732.25;;;0.08;100.00
75460;BME280;64039;53.060;9.342;2022-11-20T08:53:31;100741.28;;;0.16;100.00
75460;BME280;64039;53.060;9.342;2022-11-20T08:55:57;100738.81;;;0.18;100.00
75460;BME280;64039;53.060;9.342;2022-11-20T08:58:23;100741.47;;;0.19;100.00
75460;BME280;64039;53.060;9.342;2022-11-20T09:00:49;100744.91;;;0.20;100.00
75460;BME280;64039;53.060;9.342;2022-11-20T09:03:14;100738.69;;;0.29;100.00
75460;BME280;64039;53.060;9.342;2022-11-20T09:05:40;100733.47;;;0.28;100.00
75460;BME280;64039;53.060;9.342;2022-11-20T09:08:05;100739.34;;;0.40;100.00
75460;BME280;64039;53.060;9.342;2022-11-20T09:10:31;100740.56;;;0.32;100.00
75460;BME280;64039;53.060;9.342;2022-11-20T09:12:57;100736.53;;;0.22;100.00
75460;BME280;64039;53.060;9.342;2022-11-20T09:15:24;100735.53;;;0.34;100.00
75460;BME280;64039;53.060;9.342;2022-11-20T09:17:57;100740.19;;;0.54;100.00
75460;BME280;64039;53.060;9.342;2022-11-20T09:20:23;100741.81;;;0.67;100.00
75460;BME280;64039;53.060;9.342;2022-11-20T09:22:50;100734.13;;;0.39;100.00
75460;BME280;64039;53.060;9.342;2022-11-20T09:25:15;100749.63;;;0.55;100.00
75460;BME280;64039;53.060;9.342;2022-11-20T09:27:41;100738.44;;;0.53;100.00
75460;BME280;64039;53.060;9.342;2022-11-20T09:30:12;100739.34;;;0.69;100.00
75460;BME280;64039;53.060;9.342;2022-11-20T09:32:42;100740.53;;;0.89;100.00
75460;BME280;64039;53.060;9.342;2022-11-20T09:35:08;100741.38;;;0.74;100.00
75460;BME280;64039;53.060;9.342;2022-11-20T09:37:34;100741.38;;;0.74;100.00
75460;BME280;64039;53.060;9.342;2022-11-20T09:39:59;100737.88;;;0.87;100.00
75460;BME280;64039;53.060;9.342;2022-11-20T09:42:44;100743.97;;;1.04;100.00
75460;BME280;64039;53.060;9.342;2022-11-20T09:48:20;100747.69;;;0.94;100.00
75460;BME280;64039;53.060;9.342;2022-11-20T09:51:36;100742.38;;;0.91;100.00
75460;BME280;64039;53.060;9.342;2022-11-20T09:54:17;100743.09;;;1.04;100.00
75460;BME280;64039;53.060;9.342;2022-11-20T09:56:47;100739.09;;;0.94;100.00
75460;BME280;64039;53.060;9.342;2022-11-20T09:59:39;100729.47;;;1.20;100.00
75460;BME280;64039;53.060;9.342;2022-11-20T10:05:02;100732.38;;;1.41;100.00
75460;BME280;64039;53.060;9.342;2022-11-20T10:10:50;100732.03;;;1.35;100.00
75460;BME280;64039;53.060;9.342;2022-11-20T10:16:54;100726.22;;;0.92;100.00
75460;BME280;64039;53.060;9.342;2022-11-20T10:19:47;100733.19;;;0.95;100.00
75460;BME280;64039;53.060;9.342;2022-11-20T10:31:11;100718.66;;;0.66;100.00
75460;BME280;64039;53.060;9.342;2022-11-20T10:33:43;100722.19;;;0.68;100.00
75460;BME280;64039;53.060;9.342;2022-11-20T10:36:19;100718.22;;;0.73;100.00
75460;BME280;64039;53.060;9.342;2022-11-20T10:40:18;100720.34;;;0.80;100.00
75460;BME280;64039;53.060;9.342;2022-11-20T10:42:12;100709.50;;;0.99;100.00
75460;BME280;64039;53.060;9.342;2022-11-20T10:44:50;100702.09;;;0.89;100.00
75460;BME280;64039;53.060;9.342;2022-11-20T10:47:28;100702.38;;;1.08;100.00
75460;BME280;64039;53.060;9.342;2022-11-20T10:49:58;100700.84;;;1.12;100.00
75460;BME280;64039;53.060;9.342;2022-11-20T10:53:02;100707.19;;;1.34;100.00
75460;BME280;64039;53.060;9.342;2022-11-20T10:55:45;100717.00;;;1.26;100.00
75460;BME280;64039;53.060;9.342;2022-11-20T10:58:24;100714.19;;;0.91;100.00
75460;BME280;64039;53.060;9.342;2022-11-20T11:01:11;100715.84;;;1.06;100.00
75460;BME280;64039;53.060;9.342;2022-11-20T11:03:39;100717.38;;;1.17;100.00
75460;BME280;64039;53.060;9.342;2022-11-20T11:08:59;100708.16;;;0.76;100.00
75460;BME280;64039;53.060;9.342;2022-11-20T11:11:29;100702.69;;;0.85;100.00
75460;BME280;64039;53.060;9.342;2022-11-20T11:14:13;100708.94;;;0.75;100.00
75460;BME280;64039;53.060;9.342;2022-11-20T11:16:53;100692.59;;;0.58;100.00
75460;BME280;64039;53.060;9.342;2022-11-20T11:19:20;100706.56;;;0.63;100.00
75460;BME280;64039;53.060;9.342;2022-11-20T11:21:55;100690.16;;;0.74;100.00
75460;BME280;64039;53.060;9.342;2022-11-20T11:24:29;100689.59;;;0.80;100.00
75460;BME280;64039;53.060;9.342;2022-11-20T11:26:59;100692.59;;;0.73;100.00
75460;BME280;64039;53.060;9.342;2022-11-20T11:29:29;100690.22;;;0.76;100.00
75460;BME280;64039;53.060;9.342;2022-11-20T11:32:12;100693.22;;;0.99;100.00
75460;BME280;64039;53.060;9.342;2022-11-20T11:34:40;100686.28;;;1.11;100.00
75460;BME280;64039;53.060;9.342;2022-11-20T11:37:14;100696.69;;;0.99;100.00
75460;BME280;64039;53.060;9.342;2022-11-20T11:39:43;100679.09;;;1.20;100.00
75460;BME280;64039;53.060;9.342;2022-11-20T11:42:13;100698.03;;;1.07;100.00
75460;BME280;64039;53.060;9.342;2022-11-20T11:44:45;100687.78;;;1.07;100.00
75460;BME280;64039;53.060;9.342;2022-11-20T11:47:46;100691.13;;;1.06;100.00
75460;BME280;64039;53.060;9.342;2022-11-20T11:50:16;100694.31;;;0.87;100.00
75460;BME280;64039;53.060;9.342;2022-11-20T11:55:15;100691.06;;;1.05;100.00
75460;BME280;64039;53.060;9.342;2022-11-20T11:58:04;100690.41;;;1.09;100.00
75460;BME280;64039;53.060;9.342;2022-11-20T12:00:35;100687.50;;;1.03;100.00
75460;BME280;64039;53.060;9.342;2022-11-20T12:03:21;100690.16;;;1.19;100.00
75460;BME280;64039;53.060;9.342;2022-11-20T12:05:56;100696.88;;;1.17;100.00
75460;BME280;64039;53.060;9.342;2022-11-20T12:08:49;100694.56;;;1.37;100.00
75460;BME280;64039;53.060;9.342;2022-11-20T12:11:21;100686.69;;;1.19;100.00
75460;BME280;64039;53.060;9.342;2022-11-20T12:13:56;100685.81;;;1.33;100.00
75460;BME280;64039;53.060;9.342;2022-11-20T12:16:24;100684.03;;;1.32;100.00
75460;BME280;64039;53.060;9.342;2022-11-20T12:18:52;100680.41;;;1.29;100.00
75460;BME280;64039;53.060;9.342;2022-11-20T12:26:52;100660.91;;;1.47;100.00
75460;BME280;64039;53.060;9.342;2022-11-20T12:29:54;100662.53;;;1.30;100.00
75460;BME280;64039;53.060;9.342;2022-11-20T12:43:58;100644.53;;;1.29;100.00
75460;BME280;64039;53.060;9.342;2022-11-20T12:47:09;100645.91;;;1.38;100.00
75460;BME280;64039;53.060;9.342;2022-11-20T12:55:45;100634.84;;;1.39;100.00
75460;BME280;64039;53.060;9.342;2022-11-20T12:58:26;100635.66;;;1.23;100.00
75460;BME280;64039;53.060;9.342;2022-11-20T13:01:12;100634.66;;;1.36;100.00
75460;BME280;64039;53.060;9.342;2022-11-20T13:06:34;100645.06;;;1.23;100.00
75460;BME280;64039;53.060;9.342;2022-11-20T13:09:01;100643.41;;;1.08;100.00
75460;BME280;64039;53.060;9.342;2022-11-20T13:11:37;100643.41;;;1.08;100.00
75460;BME280;64039;53.060;9.342;2022-11-20T13:14:11;100646.75;;;1.07;100.00
75460;BME280;64039;53.060;9.342;2022-11-20T13:19:54;100647.53;;;0.76;100.00
75460;BME280;64039;53.060;9.342;2022-11-20T13:22:27;100636.25;;;0.88;100.00
75460;BME280;64039;53.060;9.342;2022-11-20T13:24:53;100643.56;;;0.97;100.00
75460;BME280;64039;53.060;9.342;2022-11-20T13:27:21;100641.19;;;1.00;100.00
75460;BME280;64039;53.060;9.342;2022-11-20T13:30:13;100635.97;;;0.98;100.00
75460;BME280;64039;53.060;9.342;2022-11-20T13:35:27;100636.66;;;1.25;100.00
75460;BME280;64039;53.060;9.342;2022-11-20T13:38:14;100628.97;;;1.10;100.00
75460;BME280;64039;53.060;9.342;2022-11-20T13:46:03;100634.66;;;1.36;100.00
75460;BME280;64039;53.060;9.342;2022-11-20T13:48:43;100631.84;;;1.00;100.00
75460;BME280;64039;53.060;9.342;2022-11-20T13:54:10;100631.13;;;0.88;100.00
75460;BME280;64039;53.060;9.342;2022-11-20T14:02:18;100612.22;;;0.71;100.00
75460;BME280;64039;53.060;9.342;2022-11-20T14:04:47;100613.00;;;1.00;100.00
75460;BME280;64039;53.060;9.342;2022-11-20T14:07:15;100616.06;;;1.09;100.00
75460;BME280;64039;53.060;9.342;2022-11-20T14:09:53;100611.59;;;0.90;100.00
75460;BME280;64039;53.060;9.342;2022-11-20T14:12:31;100613.78;;;1.14;100.00
75460;BME280;64039;53.060;9.342;2022-11-20T14:14:57;100605.91;;;1.10;100.00
75460;BME280;64039;53.060;9.342;2022-11-20T14:17:32;100604.31;;;1.13;100.00